F/V Adeline Stephen — FGUF — position and weather

sailwx.info

Track history (hours):
 
Tides and Currents Weather Stations Pressure Air Temp Water Temp Dewpoint Dewpoint Depression Visibility Wind Speed Wind Dir Waves Ship Positions

F/V Adeline Stephen

Last reported at 2014-Jul-15 20:03 UTC. Time now 2014-Jul-22 23:16 UTC.
Position N 47°42' W 003°36'.

Length 18 m.

Type: Fishing. MMSI: 228929000.

Date/timePositionNaut miles runAvg speedWind from/ knotsBaromVisibWave heightAir tempDewpointWater temp
2014-Jul-15 20:03N 47°42' W 003°36'4 7.5
2014-Jul-15 19:33N 47°41' W 003°30'6 6.2
2014-Jul-15 18:33N 47°44' W 003°22'0 0.0
2014-Jul-15 17:33N 47°44' W 003°22'0 0.0
2014-Jul-15 16:33N 47°44' W 003°22'0 0.0
2014-Jul-15 15:33N 47°44' W 003°22'0 0.1
2014-Jul-15 14:33N 47°44' W 003°22'0 0.0
2014-Jul-15 13:33N 47°44' W 003°22'0 0.1
2014-Jul-15 12:33N 47°44' W 003°22'  
2014-Jul-11 13:28N 47°44' W 003°22'0 0.1
2014-Jul-11 12:33N 47°44' W 003°22'0 0.0
2014-Jul-11 11:33N 47°44' W 003°22'0 0.0
2014-Jul-11 10:33N 47°44' W 003°22'0 0.0
2014-Jul-11 09:34N 47°44' W 003°22'0 0.0
2014-Jul-11 08:33N 47°44' W 003°22'0 0.1
2014-Jul-11 07:34N 47°44' W 003°22'0 0.0
2014-Jul-11 06:33N 47°44' W 003°22'5 4.7
2014-Jul-11 05:34N 47°41' W 003°27'  
2014-Jul-07 15:27N 47°38' W 003°34'7 8.2
2014-Jul-07 14:33N 47°41' W 003°24'3 2.7
2014-Jul-07 13:33N 47°44' W 003°22'0 0.0
2014-Jul-07 12:33N 47°44' W 003°22'0 0.0
2014-Jul-07 11:33N 47°44' W 003°22'0 0.0
2014-Jul-07 10:33N 47°44' W 003°22'0 0.0
2014-Jul-07 09:33N 47°44' W 003°22'0 0.0
2014-Jul-07 08:34N 47°44' W 003°22'0 0.0
2014-Jul-07 07:33N 47°44' W 003°22'6 6.3
2014-Jul-07 06:33N 47°40' W 003°30'9 9.0
2014-Jul-07 05:33N 47°40' W 003°43'  
Track history (hours):
 
Tides and Currents Weather Stations Pressure Air Temp Water Temp Dewpoint Dewpoint Depression Visibility Wind Speed Wind Dir Waves Ship Positions

F/V Adeline Stephen

Last reported at 2014-Jul-15 20:03 UTC. Time now 2014-Jul-22 23:16 UTC.
Position N 47°42' W 003°36'.

Length 18 m.

Type: Fishing. MMSI: 228929000.

Date/timePositionNaut miles runAvg speedWind from/ knotsBaromVisibWave heightAir tempDewpointWater temp
2014-Jul-15 20:03N 47°42' W 003°36'4 7.5
2014-Jul-15 19:33N 47°41' W 003°30'6 6.2
2014-Jul-15 18:33N 47°44' W 003°22'0 0.0
2014-Jul-15 17:33N 47°44' W 003°22'0 0.0
2014-Jul-15 16:33N 47°44' W 003°22'0 0.0
2014-Jul-15 15:33N 47°44' W 003°22'0 0.1
2014-Jul-15 14:33N 47°44' W 003°22'0 0.0
2014-Jul-15 13:33N 47°44' W 003°22'0 0.1
2014-Jul-15 12:33N 47°44' W 003°22'  
2014-Jul-11 13:28N 47°44' W 003°22'0 0.1
2014-Jul-11 12:33N 47°44' W 003°22'0 0.0
2014-Jul-11 11:33N 47°44' W 003°22'0 0.0
2014-Jul-11 10:33N 47°44' W 003°22'0 0.0
2014-Jul-11 09:34N 47°44' W 003°22'0 0.0
2014-Jul-11 08:33N 47°44' W 003°22'0 0.1
2014-Jul-11 07:34N 47°44' W 003°22'0 0.0
2014-Jul-11 06:33N 47°44' W 003°22'5 4.7
2014-Jul-11 05:34N 47°41' W 003°27'  
2014-Jul-07 15:27N 47°38' W 003°34'7 8.2
2014-Jul-07 14:33N 47°41' W 003°24'3 2.7
2014-Jul-07 13:33N 47°44' W 003°22'0 0.0
2014-Jul-07 12:33N 47°44' W 003°22'0 0.0
2014-Jul-07 11:33N 47°44' W 003°22'0 0.0
2014-Jul-07 10:33N 47°44' W 003°22'0 0.0
2014-Jul-07 09:33N 47°44' W 003°22'0 0.0
2014-Jul-07 08:34N 47°44' W 003°22'0 0.0
2014-Jul-07 07:33N 47°44' W 003°22'6 6.3
2014-Jul-07 06:33N 47°40' W 003°30'9 9.0
2014-Jul-07 05:33N 47°40' W 003°43'  

Dump ship's entire track history